sensor_id;sensor_type;location;lat;lon;timestamp;temperature;humidity
8340;DHT22;4207;49.314;7.162;2022-11-03T00:01:34;6.90;99.90
8340;DHT22;4207;49.314;7.162;2022-11-03T00:04:03;6.80;99.90
8340;DHT22;4207;49.314;7.162;2022-11-03T00:06:32;6.90;99.90
8340;DHT22;4207;49.314;7.162;2022-11-03T00:09:01;6.80;99.90
8340;DHT22;4207;49.314;7.162;2022-11-03T00:11:31;6.90;99.90
8340;DHT22;4207;49.314;7.162;2022-11-03T00:14:01;6.90;99.90
8340;DHT22;4207;49.314;7.162;2022-11-03T00:16:29;6.90;99.90
8340;DHT22;4207;49.314;7.162;2022-11-03T00:18:57;6.90;99.90
8340;DHT22;4207;49.314;7.162;2022-11-03T00:21:26;6.90;99.90
8340;DHT22;4207;49.314;7.162;2022-11-03T00:23:54;7.00;99.90
8340;DHT22;4207;49.314;7.162;2022-11-03T00:26:23;7.00;99.90
8340;DHT22;4207;49.314;7.162;2022-11-03T00:28:52;7.00;99.90
8340;DHT22;4207;49.314;7.162;2022-11-03T00:31:24;7.00;99.90
8340;DHT22;4207;49.314;7.162;2022-11-03T00:33:52;7.00;99.90
8340;DHT22;4207;49.314;7.162;2022-11-03T00:36:22;6.90;99.90
8340;DHT22;4207;49.314;7.162;2022-11-03T00:38:51;6.90;99.90
8340;DHT22;4207;49.314;7.162;2022-11-03T00:41:20;6.90;99.90
8340;DHT22;4207;49.314;7.162;2022-11-03T00:43:49;6.90;99.90
8340;DHT22;4207;49.314;7.162;2022-11-03T00:46:19;6.90;99.90
8340;DHT22;4207;49.314;7.162;2022-11-03T00:48:48;6.90;99.90
8340;DHT22;4207;49.314;7.162;2022-11-03T00:51:18;6.90;99.90
8340;DHT22;4207;49.314;7.162;2022-11-03T00:53:49;6.90;99.90
8340;DHT22;4207;49.314;7.162;2022-11-03T00:56:19;6.90;99.90
8340;DHT22;4207;49.314;7.162;2022-11-03T00:58:48;7.00;99.90
8340;DHT22;4207;49.314;7.162;2022-11-03T01:01:18;6.90;99.90
8340;DHT22;4207;49.314;7.162;2022-11-03T01:03:50;6.90;99.90
8340;DHT22;4207;49.314;7.162;2022-11-03T01:06:37;6.80;99.90
8340;DHT22;4207;49.314;7.162;2022-11-03T01:09:18;6.70;99.90
8340;DHT22;4207;49.314;7.162;2022-11-03T01:11:52;6.70;99.90
8340;DHT22;4207;49.314;7.162;2022-11-03T01:14:24;6.60;99.90
8340;DHT22;4207;49.314;7.162;2022-11-03T01:16:52;6.60;99.90
8340;DHT22;4207;49.314;7.162;2022-11-03T01:19:21;6.50;99.90
8340;DHT22;4207;49.314;7.162;2022-11-03T01:21:51;6.50;99.90
8340;DHT22;4207;49.314;7.162;2022-11-03T01:24:19;6.50;99.90
8340;DHT22;4207;49.314;7.162;2022-11-03T01:26:47;6.50;99.90
8340;DHT22;4207;49.314;7.162;2022-11-03T01:29:16;6.40;99.90
8340;DHT22;4207;49.314;7.162;2022-11-03T01:31:44;6.50;99.90
8340;DHT22;4207;49.314;7.162;2022-11-03T01:34:13;6.50;99.90
8340;DHT22;4207;49.314;7.162;2022-11-03T01:36:43;7.00;99.90
8340;DHT22;4207;49.314;7.162;2022-11-03T01:39:12;6.50;99.90
8340;DHT22;4207;49.314;7.162;2022-11-03T01:41:43;6.60;99.90
8340;DHT22;4207;49.314;7.162;2022-11-03T01:44:33;6.60;99.90
8340;DHT22;4207;49.314;7.162;2022-11-03T01:47:10;6.70;99.90
8340;DHT22;4207;49.314;7.162;2022-11-03T01:49:43;6.60;99.90
8340;DHT22;4207;49.314;7.162;2022-11-03T01:52:18;6.70;99.90
8340;DHT22;4207;49.314;7.162;2022-11-03T01:54:52;6.60;99.90
8340;DHT22;4207;49.314;7.162;2022-11-03T01:57:26;6.70;99.90
8340;DHT22;4207;49.314;7.162;2022-11-03T01:59:57;6.80;99.90
8340;DHT22;4207;49.314;7.162;2022-11-03T02:02:26;6.80;99.90
8340;DHT22;4207;49.314;7.162;2022-11-03T02:04:55;6.80;99.90
8340;DHT22;4207;49.314;7.162;2022-11-03T02:07:32;6.90;99.90
8340;DHT22;4207;49.314;7.162;2022-11-03T02:10:02;6.90;99.90
8340;DHT22;4207;49.314;7.162;2022-11-03T02:12:31;6.90;99.90
8340;DHT22;4207;49.314;7.162;2022-11-03T02:15:01;7.00;99.90
8340;DHT22;4207;49.314;7.162;2022-11-03T02:17:31;7.00;99.90
8340;DHT22;4207;49.314;7.162;2022-11-03T02:20:02;7.00;99.90
8340;DHT22;4207;49.314;7.162;2022-11-03T02:22:43;7.00;99.90
8340;DHT22;4207;49.314;7.162;2022-11-03T02:25:29;7.00;99.90
8340;DHT22;4207;49.314;7.162;2022-11-03T02:27:58;7.10;99.90
8340;DHT22;4207;49.314;7.162;2022-11-03T02:30:30;7.00;99.90
8340;DHT22;4207;49.314;7.162;2022-11-03T02:33:07;7.10;99.90
8340;DHT22;4207;49.314;7.162;2022-11-03T02:35:39;7.10;99.90
8340;DHT22;4207;49.314;7.162;2022-11-03T02:38:12;7.10;99.90
8340;DHT22;4207;49.314;7.162;2022-11-03T02:40:45;7.10;99.90
8340;DHT22;4207;49.314;7.162;2022-11-03T02:43:15;7.00;99.90
8340;DHT22;4207;49.314;7.162;2022-11-03T02:45:46;7.00;99.90
8340;DHT22;4207;49.314;7.162;2022-11-03T02:48:15;7.00;99.90
8340;DHT22;4207;49.314;7.162;2022-11-03T02:50:46;7.00;99.90
8340;DHT22;4207;49.314;7.162;2022-11-03T02:53:14;6.90;99.90
8340;DHT22;4207;49.314;7.162;2022-11-03T02:55:50;6.90;99.90
8340;DHT22;4207;49.314;7.162;2022-11-03T02:58:26;6.90;99.90
8340;DHT22;4207;49.314;7.162;2022-11-03T03:01:01;6.90;99.90
8340;DHT22;4207;49.314;7.162;2022-11-03T03:03:33;6.90;99.90
8340;DHT22;4207;49.314;7.162;2022-11-03T03:06:05;7.00;99.90
8340;DHT22;4207;49.314;7.162;2022-11-03T03:08:37;7.00;99.90
8340;DHT22;4207;49.314;7.162;2022-11-03T03:11:10;7.00;99.90
8340;DHT22;4207;49.314;7.162;2022-11-03T03:13:40;7.00;99.90
8340;DHT22;4207;49.314;7.162;2022-11-03T03:16:11;7.00;99.90
8340;DHT22;4207;49.314;7.162;2022-11-03T03:18:46;7.00;99.90
8340;DHT22;4207;49.314;7.162;2022-11-03T03:21:18;7.00;99.90
8340;DHT22;4207;49.314;7.162;2022-11-03T03:23:53;7.00;99.90
8340;DHT22;4207;49.314;7.162;2022-11-03T03:26:27;7.00;99.90
8340;DHT22;4207;49.314;7.162;2022-11-03T03:28:58;6.90;99.90
8340;DHT22;4207;49.314;7.162;2022-11-03T03:31:31;6.80;99.90
8340;DHT22;4207;49.314;7.162;2022-11-03T03:34:02;6.80;99.90
8340;DHT22;4207;49.314;7.162;2022-11-03T03:36:52;6.80;99.90
8340;DHT22;4207;49.314;7.162;2022-11-03T03:39:24;6.70;99.90
8340;DHT22;4207;49.314;7.162;2022-11-03T03:41:55;6.60;99.90
8340;DHT22;4207;49.314;7.162;2022-11-03T03:44:24;6.60;99.90
8340;DHT22;4207;49.314;7.162;2022-11-03T03:46:58;6.50;99.90
8340;DHT22;4207;49.314;7.162;2022-11-03T03:49:27;6.50;99.90
8340;DHT22;4207;49.314;7.162;2022-11-03T03:51:55;6.40;99.90
8340;DHT22;4207;49.314;7.162;2022-11-03T03:54:23;6.40;99.90
8340;DHT22;4207;49.314;7.162;2022-11-03T03:56:58;6.40;99.90
8340;DHT22;4207;49.314;7.162;2022-11-03T03:59:28;6.30;99.90
8340;DHT22;4207;49.314;7.162;2022-11-03T04:01:56;6.30;99.90
8340;DHT22;4207;49.314;7.162;2022-11-03T04:04:24;6.30;99.90
8340;DHT22;4207;49.314;7.162;2022-11-03T04:06:52;6.30;99.90
8340;DHT22;4207;49.314;7.162;2022-11-03T04:09:40;6.30;99.90
8340;DHT22;4207;49.314;7.162;2022-11-03T04:12:10;6.30;99.90
8340;DHT22;4207;49.314;7.162;2022-11-03T04:14:55;6.30;99.90
8340;DHT22;4207;49.314;7.162;2022-11-03T04:17:49;6.30;99.90
8340;DHT22;4207;49.314;7.162;2022-11-03T04:20:35;6.30;99.90
8340;DHT22;4207;49.314;7.162;2022-11-03T04:23:20;6.30;99.90
8340;DHT22;4207;49.314;7.162;2022-11-03T04:25:50;6.30;99.90
8340;DHT22;4207;49.314;7.162;2022-11-03T04:28:21;6.30;99.90
8340;DHT22;4207;49.314;7.162;2022-11-03T04:30:49;6.30;99.90
8340;DHT22;4207;49.314;7.162;2022-11-03T04:33:23;6.20;99.90
8340;DHT22;4207;49.314;7.162;2022-11-03T04:35:52;6.30;99.90
8340;DHT22;4207;49.314;7.162;2022-11-03T04:38:22;6.30;99.90
8340;DHT22;4207;49.314;7.162;2022-11-03T04:40:52;6.30;99.90
8340;DHT22;4207;49.314;7.162;2022-11-03T04:43:29;6.40;99.90
8340;DHT22;4207;49.314;7.162;2022-11-03T04:45:57;6.40;99.90
8340;DHT22;4207;49.314;7.162;2022-11-03T04:48:26;6.50;99.90
8340;DHT22;4207;49.314;7.162;2022-11-03T04:50:58;6.60;99.90
8340;DHT22;4207;49.314;7.162;2022-11-03T04:53:29;6.60;99.90
8340;DHT22;4207;49.314;7.162;2022-11-03T04:55:58;6.70;99.90
8340;DHT22;4207;49.314;7.162;2022-11-03T04:58:35;6.70;99.90
8340;DHT22;4207;49.314;7.162;2022-11-03T05:01:05;6.70;99.90
8340;DHT22;4207;49.314;7.162;2022-11-03T05:03:37;6.70;99.90
8340;DHT22;4207;49.314;7.162;2022-11-03T05:06:11;6.70;99.90
8340;DHT22;4207;49.314;7.162;2022-11-03T05:08:41;6.60;99.90
8340;DHT22;4207;49.314;7.162;2022-11-03T05:11:18;6.60;99.90
8340;DHT22;4207;49.314;7.162;2022-11-03T05:13:49;6.60;99.90
8340;DHT22;4207;49.314;7.162;2022-11-03T05:16:18;6.60;99.90
8340;DHT22;4207;49.314;7.162;2022-11-03T05:18:48;6.60;99.90
8340;DHT22;4207;49.314;7.162;2022-11-03T05:21:18;6.60;99.90
8340;DHT22;4207;49.314;7.162;2022-11-03T05:23:50;6.60;99.90
8340;DHT22;4207;49.314;7.162;2022-11-03T05:26:20;6.60;99.90
8340;DHT22;4207;49.314;7.162;2022-11-03T05:28:52;6.60;99.90
8340;DHT22;4207;49.314;7.162;2022-11-03T05:31:24;6.50;99.90
8340;DHT22;4207;49.314;7.162;2022-11-03T05:33:56;6.50;99.90
8340;DHT22;4207;49.314;7.162;2022-11-03T05:36:26;6.50;99.90
8340;DHT22;4207;49.314;7.162;2022-11-03T05:38:58;6.60;99.90
8340;DHT22;4207;49.314;7.162;2022-11-03T05:41:28;6.50;99.90
8340;DHT22;4207;49.314;7.162;2022-11-03T05:44:00;6.60;99.90
8340;DHT22;4207;49.314;7.162;2022-11-03T05:46:30;6.60;99.90
8340;DHT22;4207;49.314;7.162;2022-11-03T05:49:01;6.70;99.90
8340;DHT22;4207;49.314;7.162;2022-11-03T05:51:32;6.70;99.90
8340;DHT22;4207;49.314;7.162;2022-11-03T05:54:03;6.80;99.90
8340;DHT22;4207;49.314;7.162;2022-11-03T05:56:32;6.80;99.90
8340;DHT22;4207;49.314;7.162;2022-11-03T05:59:04;6.90;99.90
8340;DHT22;4207;49.314;7.162;2022-11-03T06:01:33;6.90;99.90
8340;DHT22;4207;49.314;7.162;2022-11-03T06:04:13;6.80;99.90
8340;DHT22;4207;49.314;7.162;2022-11-03T06:06:51;6.80;99.90
8340;DHT22;4207;49.314;7.162;2022-11-03T06:09:21;6.80;99.90
8340;DHT22;4207;49.314;7.162;2022-11-03T06:11:50;6.80;99.90
8340;DHT22;4207;49.314;7.162;2022-11-03T06:14:22;6.90;99.90
8340;DHT22;4207;49.314;7.162;2022-11-03T06:16:51;6.80;99.90
8340;DHT22;4207;49.314;7.162;2022-11-03T06:19:24;6.80;99.90
8340;DHT22;4207;49.314;7.162;2022-11-03T06:21:56;6.80;99.90
8340;DHT22;4207;49.314;7.162;2022-11-03T06:24:28;6.80;99.90
8340;DHT22;4207;49.314;7.162;2022-11-03T06:26:57;6.80;99.90
8340;DHT22;4207;49.314;7.162;2022-11-03T06:29:30;6.80;99.90
8340;DHT22;4207;49.314;7.162;2022-11-03T06:31:58;6.80;99.90
8340;DHT22;4207;49.314;7.162;2022-11-03T06:34:36;6.80;99.90
8340;DHT22;4207;49.314;7.162;2022-11-03T06:37:17;6.80;99.90
8340;DHT22;4207;49.314;7.162;2022-11-03T06:39:46;6.80;99.90
8340;DHT22;4207;49.314;7.162;2022-11-03T06:42:18;6.80;99.90
8340;DHT22;4207;49.314;7.162;2022-11-03T06:44:49;6.90;99.90
8340;DHT22;4207;49.314;7.162;2022-11-03T06:47:21;6.90;99.90
8340;DHT22;4207;49.314;7.162;2022-11-03T06:49:51;6.90;99.90
8340;DHT22;4207;49.314;7.162;2022-11-03T06:52:25;7.00;99.90
8340;DHT22;4207;49.314;7.162;2022-11-03T06:54:58;7.00;99.90
8340;DHT22;4207;49.314;7.162;2022-11-03T06:57:28;7.00;99.90
8340;DHT22;4207;49.314;7.162;2022-11-03T06:59:58;7.00;99.90
8340;DHT22;4207;49.314;7.162;2022-11-03T07:02:53;7.00;99.90
8340;DHT22;4207;49.314;7.162;2022-11-03T07:05:24;7.00;99.90
8340;DHT22;4207;49.314;7.162;2022-11-03T07:07:54;7.10;99.90
8340;DHT22;4207;49.314;7.162;2022-11-03T07:10:25;7.10;99.90
8340;DHT22;4207;49.314;7.162;2022-11-03T07:12:54;7.20;99.90
8340;DHT22;4207;49.314;7.162;2022-11-03T07:15:27;7.20;99.90
8340;DHT22;4207;49.314;7.162;2022-11-03T07:17:58;7.20;99.90
8340;DHT22;4207;49.314;7.162;2022-11-03T07:20:26;7.20;99.90
8340;DHT22;4207;49.314;7.162;2022-11-03T07:22:55;7.20;99.90
8340;DHT22;4207;49.314;7.162;2022-11-03T07:25:27;7.20;99.90
8340;DHT22;4207;49.314;7.162;2022-11-03T07:27:55;7.20;99.90
8340;DHT22;4207;49.314;7.162;2022-11-03T07:30:29;7.20;99.90
8340;DHT22;4207;49.314;7.162;2022-11-03T07:33:01;7.20;99.90
8340;DHT22;4207;49.314;7.162;2022-11-03T07:35:31;7.20;99.90
8340;DHT22;4207;49.314;7.162;2022-11-03T07:38:21;7.20;99.90
8340;DHT22;4207;49.314;7.162;2022-11-03T07:40:50;7.30;99.90
8340;DHT22;4207;49.314;7.162;2022-11-03T07:43:22;7.40;99.90
8340;DHT22;4207;49.314;7.162;2022-11-03T07:45:54;7.50;99.90
8340;DHT22;4207;49.314;7.162;2022-11-03T07:48:24;7.60;99.90
8340;DHT22;4207;49.314;7.162;2022-11-03T07:50:54;7.70;99.90
8340;DHT22;4207;49.314;7.162;2022-11-03T07:53:31;7.90;99.90
8340;DHT22;4207;49.314;7.162;2022-11-03T07:56:01;8.00;99.90
8340;DHT22;4207;49.314;7.162;2022-11-03T07:58:40;8.20;99.90
8340;DHT22;4207;49.314;7.162;2022-11-03T08:01:26;8.20;99.90
8340;DHT22;4207;49.314;7.162;2022-11-03T08:03:58;8.40;99.90
8340;DHT22;4207;49.314;7.162;2022-11-03T08:06:27;8.50;99.90
8340;DHT22;4207;49.314;7.162;2022-11-03T08:08:55;8.60;99.90
8340;DHT22;4207;49.314;7.162;2022-11-03T08:11:23;8.60;99.90
8340;DHT22;4207;49.314;7.162;2022-11-03T08:13:55;8.80;99.90
8340;DHT22;4207;49.314;7.162;2022-11-03T08:16:25;8.80;99.90
8340;DHT22;4207;49.314;7.162;2022-11-03T08:18:52;8.90;99.90
8340;DHT22;4207;49.314;7.162;2022-11-03T08:21:20;8.90;99.90
8340;DHT22;4207;49.314;7.162;2022-11-03T08:23:49;9.00;99.90
8340;DHT22;4207;49.314;7.162;2022-11-03T08:26:17;9.10;99.90
8340;DHT22;4207;49.314;7.162;2022-11-03T08:28:45;9.10;99.90
8340;DHT22;4207;49.314;7.162;2022-11-03T08:31:13;9.10;99.90
8340;DHT22;4207;49.314;7.162;2022-11-03T08:33:42;9.20;99.90
8340;DHT22;4207;49.314;7.162;2022-11-03T08:36:10;9.20;99.90
8340;DHT22;4207;49.314;7.162;2022-11-03T08:38:38;9.30;99.90
8340;DHT22;4207;49.314;7.162;2022-11-03T08:41:06;9.40;99.90
8340;DHT22;4207;49.314;7.162;2022-11-03T08:43:34;9.40;99.90
8340;DHT22;4207;49.314;7.162;2022-11-03T08:46:03;9.40;99.90
8340;DHT22;4207;49.314;7.162;2022-11-03T08:48:44;9.40;99.90
8340;DHT22;4207;49.314;7.162;2022-11-03T08:51:13;9.40;99.90
8340;DHT22;4207;49.314;7.162;2022-11-03T08:53:41;9.40;99.90
8340;DHT22;4207;49.314;7.162;2022-11-03T08:56:10;9.40;99.90
8340;DHT22;4207;49.314;7.162;2022-11-03T08:58:41;9.40;99.90
8340;DHT22;4207;49.314;7.162;2022-11-03T09:01:09;9.50;99.90
8340;DHT22;4207;49.314;7.162;2022-11-03T09:03:37;9.60;99.90
8340;DHT22;4207;49.314;7.162;2022-11-03T09:06:08;9.70;99.90
8340;DHT22;4207;49.314;7.162;2022-11-03T09:08:36;9.80;99.90
8340;DHT22;4207;49.314;7.162;2022-11-03T09:11:24;10.00;99.90
8340;DHT22;4207;49.314;7.162;2022-11-03T09:13:53;10.00;99.90
8340;DHT22;4207;49.314;7.162;2022-11-03T09:16:21;10.10;99.90
8340;DHT22;4207;49.314;7.162;2022-11-03T09:18:49;10.20;99.90
8340;DHT22;4207;49.314;7.162;2022-11-03T09:21:18;10.30;99.90
8340;DHT22;4207;49.314;7.162;2022-11-03T09:23:46;10.50;99.90
8340;DHT22;4207;49.314;7.162;2022-11-03T09:26:14;10.70;99.90
8340;DHT22;4207;49.314;7.162;2022-11-03T09:28:42;10.80;99.90
8340;DHT22;4207;49.314;7.162;2022-11-03T09:31:10;11.00;99.90
8340;DHT22;4207;49.314;7.162;2022-11-03T09:33:38;11.10;99.90
8340;DHT22;4207;49.314;7.162;2022-11-03T09:36:06;11.30;99.90
8340;DHT22;4207;49.314;7.162;2022-11-03T09:38:36;11.40;99.90
8340;DHT22;4207;49.314;7.162;2022-11-03T09:41:04;11.60;99.90
8340;DHT22;4207;49.314;7.162;2022-11-03T09:43:52;11.70;99.90
8340;DHT22;4207;49.314;7.162;2022-11-03T09:46:21;11.80;99.90
8340;DHT22;4207;49.314;7.162;2022-11-03T09:48:49;11.80;99.90
8340;DHT22;4207;49.314;7.162;2022-11-03T09:51:19;11.90;99.90
8340;DHT22;4207;49.314;7.162;2022-11-03T09:53:49;11.90;99.90
8340;DHT22;4207;49.314;7.162;2022-11-03T09:56:18;12.00;99.90
8340;DHT22;4207;49.314;7.162;2022-11-03T09:58:48;12.00;99.90
8340;DHT22;4207;49.314;7.162;2022-11-03T10:01:20;12.00;99.90
8340;DHT22;4207;49.314;7.162;2022-11-03T10:03:49;12.10;99.90
8340;DHT22;4207;49.314;7.162;2022-11-03T10:06:17;12.10;99.90
8340;DHT22;4207;49.314;7.162;2022-11-03T10:08:46;12.10;99.90
8340;DHT22;4207;49.314;7.162;2022-11-03T10:11:16;12.10;99.90
8340;DHT22;4207;49.314;7.162;2022-11-03T10:13:46;12.20;99.90
8340;DHT22;4207;49.314;7.162;2022-11-03T10:16:21;12.20;99.90
8340;DHT22;4207;49.314;7.162;2022-11-03T10:18:50;12.20;99.90
8340;DHT22;4207;49.314;7.162;2022-11-03T10:21:20;12.20;99.90
8340;DHT22;4207;49.314;7.162;2022-11-03T10:23:50;12.20;99.90
8340;DHT22;4207;49.314;7.162;2022-11-03T10:26:20;12.20;99.90
8340;DHT22;4207;49.314;7.162;2022-11-03T10:28:59;12.20;99.90
8340;DHT22;4207;49.314;7.162;2022-11-03T10:31:32;12.30;99.90
8340;DHT22;4207;49.314;7.162;2022-11-03T10:34:01;12.20;99.90
8340;DHT22;4207;49.314;7.162;2022-11-03T10:36:31;12.20;99.90
8340;DHT22;4207;49.314;7.162;2022-11-03T10:39:22;12.30;99.90
8340;DHT22;4207;49.314;7.162;2022-11-03T10:41:56;12.30;99.90
8340;DHT22;4207;49.314;7.162;2022-11-03T10:44:27;12.30;99.90
8340;DHT22;4207;49.314;7.162;2022-11-03T10:46:56;12.30;99.90
8340;DHT22;4207;49.314;7.162;2022-11-03T10:49:27;12.20;99.90
8340;DHT22;4207;49.314;7.162;2022-11-03T10:52:05;12.20;99.90
8340;DHT22;4207;49.314;7.162;2022-11-03T10:54:34;12.20;99.90
8340;DHT22;4207;49.314;7.162;2022-11-03T10:57:05;12.20;99.90
8340;DHT22;4207;49.314;7.162;2022-11-03T10:59:35;12.20;99.90
8340;DHT22;4207;49.314;7.162;2022-11-03T11:02:12;12.20;99.90
8340;DHT22;4207;49.314;7.162;2022-11-03T11:04:42;12.30;99.90
8340;DHT22;4207;49.314;7.162;2022-11-03T11:07:22;12.40;99.90
8340;DHT22;4207;49.314;7.162;2022-11-03T11:09:52;12.60;99.90
8340;DHT22;4207;49.314;7.162;2022-11-03T11:12:23;12.80;99.90
8340;DHT22;4207;49.314;7.162;2022-11-03T11:14:55;12.90;99.90
8340;DHT22;4207;49.314;7.162;2022-11-03T11:27:56;13.10;99.90
8340;DHT22;4207;49.314;7.162;2022-11-03T11:33:32;13.80;99.90
8340;DHT22;4207;49.314;7.162;2022-11-03T11:36:18;13.80;99.90
8340;DHT22;4207;49.314;7.162;2022-11-03T11:39:08;13.80;99.90
8340;DHT22;4207;49.314;7.162;2022-11-03T11:42:05;13.70;99.90
8340;DHT22;4207;49.314;7.162;2022-11-03T11:44:45;13.70;99.90
8340;DHT22;4207;49.314;7.162;2022-11-03T11:47:27;13.70;99.90
8340;DHT22;4207;49.314;7.162;2022-11-03T11:50:15;13.70;99.90
8340;DHT22;4207;49.314;7.162;2022-11-03T11:52:47;13.80;99.90
8340;DHT22;4207;49.314;7.162;2022-11-03T11:55:18;13.80;99.90
8340;DHT22;4207;49.314;7.162;2022-11-03T11:57:47;13.90;99.90
8340;DHT22;4207;49.314;7.162;2022-11-03T12:00:21;14.00;99.90
8340;DHT22;4207;49.314;7.162;2022-11-03T12:02:50;14.10;99.90
8340;DHT22;4207;49.314;7.162;2022-11-03T12:05:21;14.20;99.90
8340;DHT22;4207;49.314;7.162;2022-11-03T12:07:49;14.30;99.90
8340;DHT22;4207;49.314;7.162;2022-11-03T12:10:19;14.20;99.90
8340;DHT22;4207;49.314;7.162;2022-11-03T12:12:48;14.10;99.90
8340;DHT22;4207;49.314;7.162;2022-11-03T12:15:48;14.10;99.90
8340;DHT22;4207;49.314;7.162;2022-11-03T12:18:34;14.00;99.90
8340;DHT22;4207;49.314;7.162;2022-11-03T12:21:08;13.90;99.90
8340;DHT22;4207;49.314;7.162;2022-11-03T12:23:39;13.90;99.90
8340;DHT22;4207;49.314;7.162;2022-11-03T12:26:15;13.90;99.90
8340;DHT22;4207;49.314;7.162;2022-11-03T12:28:44;13.90;99.90
8340;DHT22;4207;49.314;7.162;2022-11-03T12:31:13;13.90;99.90
8340;DHT22;4207;49.314;7.162;2022-11-03T12:33:41;14.00;99.90
8340;DHT22;4207;49.314;7.162;2022-11-03T12:36:09;14.10;99.90
8340;DHT22;4207;49.314;7.162;2022-11-03T12:38:37;14.20;99.90
8340;DHT22;4207;49.314;7.162;2022-11-03T12:41:05;14.40;99.90
8340;DHT22;4207;49.314;7.162;2022-11-03T12:43:51;14.50;99.90
8340;DHT22;4207;49.314;7.162;2022-11-03T12:46:21;14.60;99.90
8340;DHT22;4207;49.314;7.162;2022-11-03T12:48:49;14.70;99.90
8340;DHT22;4207;49.314;7.162;2022-11-03T12:51:19;14.80;99.90
8340;DHT22;4207;49.314;7.162;2022-11-03T12:53:48;14.90;99.90
8340;DHT22;4207;49.314;7.162;2022-11-03T12:56:17;15.00;99.90
8340;DHT22;4207;49.314;7.162;2022-11-03T12:58:45;15.00;99.90
8340;DHT22;4207;49.314;7.162;2022-11-03T13:01:13;15.00;99.90
8340;DHT22;4207;49.314;7.162;2022-11-03T13:03:43;15.00;99.90
8340;DHT22;4207;49.314;7.162;2022-11-03T13:06:11;15.10;99.90
8340;DHT22;4207;49.314;7.162;2022-11-03T13:08:40;15.10;99.90
8340;DHT22;4207;49.314;7.162;2022-11-03T13:11:09;15.00;99.90
8340;DHT22;4207;49.314;7.162;2022-11-03T13:13:51;14.90;99.90
8340;DHT22;4207;49.314;7.162;2022-11-03T13:16:19;14.80;99.90
8340;DHT22;4207;49.314;7.162;2022-11-03T13:18:49;14.70;99.90
8340;DHT22;4207;49.314;7.162;2022-11-03T13:21:17;14.60;99.90
8340;DHT22;4207;49.314;7.162;2022-11-03T13:23:45;14.40;99.90
8340;DHT22;4207;49.314;7.162;2022-11-03T13:26:13;14.50;99.90
8340;DHT22;4207;49.314;7.162;2022-11-03T13:28:41;14.40;99.90
8340;DHT22;4207;49.314;7.162;2022-11-03T13:31:09;14.40;99.90
8340;DHT22;4207;49.314;7.162;2022-11-03T13:33:37;14.30;99.90
8340;DHT22;4207;49.314;7.162;2022-11-03T13:36:07;14.30;99.90
8340;DHT22;4207;49.314;7.162;2022-11-03T13:38:35;14.30;99.90
8340;DHT22;4207;49.314;7.162;2022-11-03T13:41:03;14.30;99.90
8340;DHT22;4207;49.314;7.162;2022-11-03T13:43:35;14.30;99.90
8340;DHT22;4207;49.314;7.162;2022-11-03T13:46:02;14.20;99.90
8340;DHT22;4207;49.314;7.162;2022-11-03T13:48:31;14.10;99.90
8340;DHT22;4207;49.314;7.162;2022-11-03T13:51:20;13.90;99.90
8340;DHT22;4207;49.314;7.162;2022-11-03T13:53:48;13.80;99.90
8340;DHT22;4207;49.314;7.162;2022-11-03T13:56:36;13.70;99.90
8340;DHT22;4207;49.314;7.162;2022-11-03T13:59:24;13.60;99.90
8340;DHT22;4207;49.314;7.162;2022-11-03T14:01:54;13.60;99.90
8340;DHT22;4207;49.314;7.162;2022-11-03T14:04:42;13.50;99.90
8340;DHT22;4207;49.314;7.162;2022-11-03T14:07:12;13.50;99.90
8340;DHT22;4207;49.314;7.162;2022-11-03T14:09:40;13.40;99.90
8340;DHT22;4207;49.314;7.162;2022-11-03T14:12:08;13.30;99.90
8340;DHT22;4207;49.314;7.162;2022-11-03T14:14:53;13.20;99.90
8340;DHT22;4207;49.314;7.162;2022-11-03T14:17:21;13.10;99.90
8340;DHT22;4207;49.314;7.162;2022-11-03T14:19:50;13.10;99.90
8340;DHT22;4207;49.314;7.162;2022-11-03T14:22:26;13.00;99.90
8340;DHT22;4207;49.314;7.162;2022-11-03T14:24:55;12.90;99.90
8340;DHT22;4207;49.314;7.162;2022-11-03T14:27:24;12.80;99.90
8340;DHT22;4207;49.314;7.162;2022-11-03T14:29:52;12.70;99.90
8340;DHT22;4207;49.314;7.162;2022-11-03T14:32:20;12.60;99.90
8340;DHT22;4207;49.314;7.162;2022-11-03T14:34:48;12.60;99.90
8340;DHT22;4207;49.314;7.162;2022-11-03T14:37:16;12.50;99.90
8340;DHT22;4207;49.314;7.162;2022-11-03T14:39:45;12.50;99.90
8340;DHT22;4207;49.314;7.162;2022-11-03T14:42:13;12.50;99.90
8340;DHT22;4207;49.314;7.162;2022-11-03T14:44:43;12.50;99.90
8340;DHT22;4207;49.314;7.162;2022-11-03T14:47:12;12.40;99.90
8340;DHT22;4207;49.314;7.162;2022-11-03T14:49:41;12.40;99.90
8340;DHT22;4207;49.314;7.162;2022-11-03T14:52:09;12.30;99.90
8340;DHT22;4207;49.314;7.162;2022-11-03T14:54:37;12.30;99.90
8340;DHT22;4207;49.314;7.162;2022-11-03T14:57:06;12.20;99.90
8340;DHT22;4207;49.314;7.162;2022-11-03T14:59:35;12.20;99.90
8340;DHT22;4207;49.314;7.162;2022-11-03T15:02:04;12.20;99.90
8340;DHT22;4207;49.314;7.162;2022-11-03T15:04:33;12.10;99.90
8340;DHT22;4207;49.314;7.162;2022-11-03T15:07:00;12.10;99.90
8340;DHT22;4207;49.314;7.162;2022-11-03T15:09:28;12.00;99.90
8340;DHT22;4207;49.314;7.162;2022-11-03T15:11:56;12.00;99.90
8340;DHT22;4207;49.314;7.162;2022-11-03T15:14:26;12.00;99.90
8340;DHT22;4207;49.314;7.162;2022-11-03T15:16:55;12.00;99.90
8340;DHT22;4207;49.314;7.162;2022-11-03T15:19:23;11.90;99.90
8340;DHT22;4207;49.314;7.162;2022-11-03T15:21:51;11.90;99.90
8340;DHT22;4207;49.314;7.162;2022-11-03T15:24:19;11.90;99.90
8340;DHT22;4207;49.314;7.162;2022-11-03T15:27:07;11.90;99.90
8340;DHT22;4207;49.314;7.162;2022-11-03T15:29:36;11.80;99.90
8340;DHT22;4207;49.314;7.162;2022-11-03T15:32:04;11.80;99.90
8340;DHT22;4207;49.314;7.162;2022-11-03T15:34:32;11.80;99.90
8340;DHT22;4207;49.314;7.162;2022-11-03T15:37:00;11.80;99.90
8340;DHT22;4207;49.314;7.162;2022-11-03T15:39:28;11.80;99.90
8340;DHT22;4207;49.314;7.162;2022-11-03T15:41:56;11.70;99.90
8340;DHT22;4207;49.314;7.162;2022-11-03T15:44:26;11.70;99.90
8340;DHT22;4207;49.314;7.162;2022-11-03T15:46:55;11.70;99.90
8340;DHT22;4207;49.314;7.162;2022-11-03T15:49:23;11.60;99.90
8340;DHT22;4207;49.314;7.162;2022-11-03T15:51:51;11.60;99.90
8340;DHT22;4207;49.314;7.162;2022-11-03T15:54:19;11.60;99.90
8340;DHT22;4207;49.314;7.162;2022-11-03T15:56:47;11.60;99.90
8340;DHT22;4207;49.314;7.162;2022-11-03T15:59:15;11.50;99.90
8340;DHT22;4207;49.314;7.162;2022-11-03T16:01:44;11.50;99.90
8340;DHT22;4207;49.314;7.162;2022-11-03T16:04:14;11.50;99.90
8340;DHT22;4207;49.314;7.162;2022-11-03T16:06:42;11.40;99.90
8340;DHT22;4207;49.314;7.162;2022-11-03T16:09:30;11.40;99.90
8340;DHT22;4207;49.314;7.162;2022-11-03T16:11:58;11.40;99.90
8340;DHT22;4207;49.314;7.162;2022-11-03T16:14:26;11.40;99.90
8340;DHT22;4207;49.314;7.162;2022-11-03T16:16:56;11.40;99.90
8340;DHT22;4207;49.314;7.162;2022-11-03T16:19:25;11.30;99.90
8340;DHT22;4207;49.314;7.162;2022-11-03T16:21:53;11.30;99.90
8340;DHT22;4207;49.314;7.162;2022-11-03T16:24:21;11.30;99.90
8340;DHT22;4207;49.314;7.162;2022-11-03T16:27:00;11.30;99.90
8340;DHT22;4207;49.314;7.162;2022-11-03T16:29:28;11.30;99.90
8340;DHT22;4207;49.314;7.162;2022-11-03T16:31:56;11.30;99.90
8340;DHT22;4207;49.314;7.162;2022-11-03T16:34:25;11.30;99.90
8340;DHT22;4207;49.314;7.162;2022-11-03T16:36:53;11.30;99.90
8340;DHT22;4207;49.314;7.162;2022-11-03T16:39:21;11.20;99.90
8340;DHT22;4207;49.314;7.162;2022-11-03T16:41:50;11.20;99.90
8340;DHT22;4207;49.314;7.162;2022-11-03T16:44:20;11.10;99.90
8340;DHT22;4207;49.314;7.162;2022-11-03T16:46:48;11.20;99.90
8340;DHT22;4207;49.314;7.162;2022-11-03T16:49:16;11.10;99.90
8340;DHT22;4207;49.314;7.162;2022-11-03T16:51:45;11.10;99.90